sensor_id;sensor_type;location;lat;lon;timestamp;temperature;humidity
47961;DHT22;33721;48.852;9.936;2022-12-20T00:00:43;1.30;99.90
47961;DHT22;33721;48.852;9.936;2022-12-20T00:03:09;1.30;99.90
47961;DHT22;33721;48.852;9.936;2022-12-20T00:05:39;1.30;99.90
47961;DHT22;33721;48.852;9.936;2022-12-20T00:08:05;1.20;99.90
47961;DHT22;33721;48.852;9.936;2022-12-20T00:10:41;1.20;99.90
47961;DHT22;33721;48.852;9.936;2022-12-20T00:13:08;1.30;99.90
47961;DHT22;33721;48.852;9.936;2022-12-20T00:15:34;1.30;99.90
47961;DHT22;33721;48.852;9.936;2022-12-20T00:18:00;1.20;99.90
47961;DHT22;33721;48.852;9.936;2022-12-20T00:20:26;1.10;99.90
47961;DHT22;33721;48.852;9.936;2022-12-20T00:22:52;1.10;99.90
47961;DHT22;33721;48.852;9.936;2022-12-20T00:25:19;1.10;99.90
47961;DHT22;33721;48.852;9.936;2022-12-20T00:27:46;1.00;99.90
47961;DHT22;33721;48.852;9.936;2022-12-20T00:30:12;1.00;99.90
47961;DHT22;33721;48.852;9.936;2022-12-20T00:32:38;1.00;99.90
47961;DHT22;33721;48.852;9.936;2022-12-20T00:35:04;1.10;99.90
47961;DHT22;33721;48.852;9.936;2022-12-20T00:37:30;1.20;99.90
47961;DHT22;33721;48.852;9.936;2022-12-20T00:39:55;1.20;99.90
47961;DHT22;33721;48.852;9.936;2022-12-20T00:42:21;1.20;99.90
47961;DHT22;33721;48.852;9.936;2022-12-20T00:44:47;1.20;99.90
47961;DHT22;33721;48.852;9.936;2022-12-20T00:47:13;1.20;99.90
47961;DHT22;33721;48.852;9.936;2022-12-20T00:49:39;1.10;99.90
47961;DHT22;33721;48.852;9.936;2022-12-20T00:52:05;1.10;99.90
47961;DHT22;33721;48.852;9.936;2022-12-20T00:54:30;1.10;99.90
47961;DHT22;33721;48.852;9.936;2022-12-20T00:56:56;1.10;99.90
47961;DHT22;33721;48.852;9.936;2022-12-20T00:59:21;1.10;99.90
47961;DHT22;33721;48.852;9.936;2022-12-20T01:01:47;1.10;99.90
47961;DHT22;33721;48.852;9.936;2022-12-20T01:04:13;1.10;99.90
47961;DHT22;33721;48.852;9.936;2022-12-20T01:06:39;1.00;99.90
47961;DHT22;33721;48.852;9.936;2022-12-20T01:09:05;1.00;99.90
47961;DHT22;33721;48.852;9.936;2022-12-20T01:11:33;1.00;99.90
47961;DHT22;33721;48.852;9.936;2022-12-20T01:14:04;1.10;99.90
47961;DHT22;33721;48.852;9.936;2022-12-20T01:16:38;1.10;99.90
47961;DHT22;33721;48.852;9.936;2022-12-20T01:19:06;1.00;99.90
47961;DHT22;33721;48.852;9.936;2022-12-20T01:21:32;1.10;99.90
47961;DHT22;33721;48.852;9.936;2022-12-20T01:23:58;1.10;99.90
47961;DHT22;33721;48.852;9.936;2022-12-20T01:26:27;1.10;99.90
47961;DHT22;33721;48.852;9.936;2022-12-20T01:28:55;1.10;99.90
47961;DHT22;33721;48.852;9.936;2022-12-20T01:31:22;1.10;99.90
47961;DHT22;33721;48.852;9.936;2022-12-20T01:33:49;1.10;99.90
47961;DHT22;33721;48.852;9.936;2022-12-20T01:36:17;1.10;99.90
47961;DHT22;33721;48.852;9.936;2022-12-20T01:38:44;1.10;99.90
47961;DHT22;33721;48.852;9.936;2022-12-20T01:41:19;1.20;99.90
47961;DHT22;33721;48.852;9.936;2022-12-20T01:46:14;1.20;99.90
47961;DHT22;33721;48.852;9.936;2022-12-20T01:48:41;1.20;99.90
47961;DHT22;33721;48.852;9.936;2022-12-20T01:51:08;1.30;99.90
47961;DHT22;33721;48.852;9.936;2022-12-20T01:53:34;1.30;99.90
47961;DHT22;33721;48.852;9.936;2022-12-20T01:56:03;1.20;99.90
47961;DHT22;33721;48.852;9.936;2022-12-20T01:58:30;1.10;99.90
47961;DHT22;33721;48.852;9.936;2022-12-20T02:00:57;1.10;99.90
47961;DHT22;33721;48.852;9.936;2022-12-20T02:03:22;1.00;99.90
47961;DHT22;33721;48.852;9.936;2022-12-20T02:05:48;1.10;99.90
47961;DHT22;33721;48.852;9.936;2022-12-20T02:08:17;1.10;99.90
47961;DHT22;33721;48.852;9.936;2022-12-20T02:13:23;1.10;99.90
47961;DHT22;33721;48.852;9.936;2022-12-20T02:15:55;1.10;99.90
47961;DHT22;33721;48.852;9.936;2022-12-20T02:18:28;1.10;99.90
47961;DHT22;33721;48.852;9.936;2022-12-20T02:32:25;1.10;99.90
47961;DHT22;33721;48.852;9.936;2022-12-20T02:34:52;1.20;99.90
47961;DHT22;33721;48.852;9.936;2022-12-20T02:37:19;1.20;99.90
47961;DHT22;33721;48.852;9.936;2022-12-20T02:39:45;1.20;99.90
47961;DHT22;33721;48.852;9.936;2022-12-20T02:42:14;1.20;99.90
47961;DHT22;33721;48.852;9.936;2022-12-20T02:44:44;1.10;99.90
47961;DHT22;33721;48.852;9.936;2022-12-20T02:47:33;1.20;99.90
47961;DHT22;33721;48.852;9.936;2022-12-20T02:50:02;1.10;99.90
47961;DHT22;33721;48.852;9.936;2022-12-20T02:52:29;1.20;99.90
47961;DHT22;33721;48.852;9.936;2022-12-20T02:54:56;1.20;99.90
47961;DHT22;33721;48.852;9.936;2022-12-20T03:00:05;1.20;99.90
47961;DHT22;33721;48.852;9.936;2022-12-20T03:02:33;1.10;99.90
47961;DHT22;33721;48.852;9.936;2022-12-20T03:05:21;1.00;99.90
47961;DHT22;33721;48.852;9.936;2022-12-20T03:07:48;1.00;99.90
47961;DHT22;33721;48.852;9.936;2022-12-20T03:10:15;1.00;99.90
47961;DHT22;33721;48.852;9.936;2022-12-20T03:12:41;1.00;99.90
47961;DHT22;33721;48.852;9.936;2022-12-20T03:15:07;1.10;99.90
47961;DHT22;33721;48.852;9.936;2022-12-20T03:17:33;1.00;99.90
47961;DHT22;33721;48.852;9.936;2022-12-20T03:19:59;1.00;99.90
47961;DHT22;33721;48.852;9.936;2022-12-20T03:22:25;0.90;99.90
47961;DHT22;33721;48.852;9.936;2022-12-20T03:24:51;0.90;99.90
47961;DHT22;33721;48.852;9.936;2022-12-20T03:27:17;0.90;99.90
47961;DHT22;33721;48.852;9.936;2022-12-20T03:29:42;0.90;99.90
47961;DHT22;33721;48.852;9.936;2022-12-20T03:32:10;1.00;99.90
47961;DHT22;33721;48.852;9.936;2022-12-20T03:34:36;1.00;99.90
47961;DHT22;33721;48.852;9.936;2022-12-20T03:37:02;1.00;99.90
47961;DHT22;33721;48.852;9.936;2022-12-20T03:39:28;0.90;99.90
47961;DHT22;33721;48.852;9.936;2022-12-20T03:41:53;0.90;99.90
47961;DHT22;33721;48.852;9.936;2022-12-20T03:44:19;0.90;99.90
47961;DHT22;33721;48.852;9.936;2022-12-20T03:46:44;0.90;99.90
47961;DHT22;33721;48.852;9.936;2022-12-20T03:49:10;0.90;99.90
47961;DHT22;33721;48.852;9.936;2022-12-20T03:51:36;0.90;99.90
47961;DHT22;33721;48.852;9.936;2022-12-20T03:54:01;0.90;99.90
47961;DHT22;33721;48.852;9.936;2022-12-20T03:56:27;1.00;99.90
47961;DHT22;33721;48.852;9.936;2022-12-20T03:58:52;0.90;99.90
47961;DHT22;33721;48.852;9.936;2022-12-20T04:01:19;0.80;99.90
47961;DHT22;33721;48.852;9.936;2022-12-20T04:03:45;0.80;99.90
47961;DHT22;33721;48.852;9.936;2022-12-20T04:06:11;0.80;99.90
47961;DHT22;33721;48.852;9.936;2022-12-20T04:08:36;0.70;99.90
47961;DHT22;33721;48.852;9.936;2022-12-20T04:11:02;0.80;99.90
47961;DHT22;33721;48.852;9.936;2022-12-20T04:13:50;0.80;99.90
47961;DHT22;33721;48.852;9.936;2022-12-20T04:16:19;0.80;99.90
47961;DHT22;33721;48.852;9.936;2022-12-20T04:18:45;0.80;99.90
47961;DHT22;33721;48.852;9.936;2022-12-20T04:21:11;0.80;99.90
47961;DHT22;33721;48.852;9.936;2022-12-20T04:23:39;0.80;99.90
47961;DHT22;33721;48.852;9.936;2022-12-20T04:26:06;0.70;99.90
47961;DHT22;33721;48.852;9.936;2022-12-20T04:28:33;0.70;99.90
47961;DHT22;33721;48.852;9.936;2022-12-20T04:30:59;0.70;99.90
47961;DHT22;33721;48.852;9.936;2022-12-20T04:33:26;0.60;99.90
47961;DHT22;33721;48.852;9.936;2022-12-20T04:35:52;0.70;99.90
47961;DHT22;33721;48.852;9.936;2022-12-20T04:38:19;0.70;99.90
47961;DHT22;33721;48.852;9.936;2022-12-20T04:40:51;0.70;99.90
47961;DHT22;33721;48.852;9.936;2022-12-20T04:43:18;0.70;99.90
47961;DHT22;33721;48.852;9.936;2022-12-20T04:45:46;0.60;99.90
47961;DHT22;33721;48.852;9.936;2022-12-20T04:48:12;0.60;99.90
47961;DHT22;33721;48.852;9.936;2022-12-20T04:50:38;0.60;99.90
47961;DHT22;33721;48.852;9.936;2022-12-20T04:53:03;0.60;99.90
47961;DHT22;33721;48.852;9.936;2022-12-20T04:55:48;0.60;99.90
47961;DHT22;33721;48.852;9.936;2022-12-20T04:58:13;0.70;99.90
47961;DHT22;33721;48.852;9.936;2022-12-20T05:00:39;0.70;99.90
47961;DHT22;33721;48.852;9.936;2022-12-20T05:03:04;0.80;99.90
47961;DHT22;33721;48.852;9.936;2022-12-20T05:05:30;0.80;99.90
47961;DHT22;33721;48.852;9.936;2022-12-20T05:07:56;0.90;99.90
47961;DHT22;33721;48.852;9.936;2022-12-20T05:10:21;0.90;99.90
47961;DHT22;33721;48.852;9.936;2022-12-20T05:12:47;0.90;99.90
47961;DHT22;33721;48.852;9.936;2022-12-20T05:15:13;0.90;99.90
47961;DHT22;33721;48.852;9.936;2022-12-20T05:17:38;1.00;99.90
47961;DHT22;33721;48.852;9.936;2022-12-20T05:20:05;1.00;99.90
47961;DHT22;33721;48.852;9.936;2022-12-20T05:22:31;1.00;99.90
47961;DHT22;33721;48.852;9.936;2022-12-20T05:25:15;1.00;99.90
47961;DHT22;33721;48.852;9.936;2022-12-20T05:27:59;1.00;99.90
47961;DHT22;33721;48.852;9.936;2022-12-20T05:30:25;1.00;99.90
47961;DHT22;33721;48.852;9.936;2022-12-20T05:32:51;1.10;99.90
47961;DHT22;33721;48.852;9.936;2022-12-20T05:35:17;1.00;99.90
47961;DHT22;33721;48.852;9.936;2022-12-20T05:37:42;0.80;99.90
47961;DHT22;33721;48.852;9.936;2022-12-20T05:40:09;0.80;99.90
47961;DHT22;33721;48.852;9.936;2022-12-20T05:42:35;0.80;99.90
47961;DHT22;33721;48.852;9.936;2022-12-20T05:45:01;0.80;99.90
47961;DHT22;33721;48.852;9.936;2022-12-20T05:47:27;0.80;99.90
47961;DHT22;33721;48.852;9.936;2022-12-20T05:49:53;0.80;99.90
47961;DHT22;33721;48.852;9.936;2022-12-20T05:52:20;0.80;99.90
47961;DHT22;33721;48.852;9.936;2022-12-20T05:54:45;0.80;99.90
47961;DHT22;33721;48.852;9.936;2022-12-20T05:57:11;0.80;99.90
47961;DHT22;33721;48.852;9.936;2022-12-20T05:59:38;0.90;99.90
47961;DHT22;33721;48.852;9.936;2022-12-20T06:02:05;0.80;99.90
47961;DHT22;33721;48.852;9.936;2022-12-20T06:04:31;0.80;99.90
47961;DHT22;33721;48.852;9.936;2022-12-20T06:06:57;0.80;99.90
47961;DHT22;33721;48.852;9.936;2022-12-20T06:09:24;0.90;99.90
47961;DHT22;33721;48.852;9.936;2022-12-20T06:11:50;0.90;99.90
47961;DHT22;33721;48.852;9.936;2022-12-20T06:14:15;0.90;99.90
47961;DHT22;33721;48.852;9.936;2022-12-20T06:16:41;0.90;99.90
47961;DHT22;33721;48.852;9.936;2022-12-20T06:19:09;0.90;99.90
47961;DHT22;33721;48.852;9.936;2022-12-20T06:21:41;0.90;99.90
47961;DHT22;33721;48.852;9.936;2022-12-20T06:24:06;1.00;99.90
47961;DHT22;33721;48.852;9.936;2022-12-20T06:26:33;1.00;99.90
47961;DHT22;33721;48.852;9.936;2022-12-20T06:29:05;1.00;99.90
47961;DHT22;33721;48.852;9.936;2022-12-20T06:31:33;1.10;99.90
47961;DHT22;33721;48.852;9.936;2022-12-20T06:33:59;1.10;99.90
47961;DHT22;33721;48.852;9.936;2022-12-20T06:36:24;1.10;99.90
47961;DHT22;33721;48.852;9.936;2022-12-20T06:38:50;1.10;99.90
47961;DHT22;33721;48.852;9.936;2022-12-20T06:41:16;1.10;99.90
47961;DHT22;33721;48.852;9.936;2022-12-20T06:43:41;1.10;99.90
47961;DHT22;33721;48.852;9.936;2022-12-20T06:46:07;1.10;99.90
47961;DHT22;33721;48.852;9.936;2022-12-20T06:48:33;1.20;99.90
47961;DHT22;33721;48.852;9.936;2022-12-20T06:50:58;1.20;99.90
47961;DHT22;33721;48.852;9.936;2022-12-20T06:53:24;1.20;99.90
47961;DHT22;33721;48.852;9.936;2022-12-20T06:55:50;1.20;99.90
47961;DHT22;33721;48.852;9.936;2022-12-20T06:58:17;1.20;99.90
47961;DHT22;33721;48.852;9.936;2022-12-20T07:00:42;1.20;99.90
47961;DHT22;33721;48.852;9.936;2022-12-20T07:03:08;1.20;99.90
47961;DHT22;33721;48.852;9.936;2022-12-20T07:05:34;1.20;99.90
47961;DHT22;33721;48.852;9.936;2022-12-20T07:07:59;1.20;99.90
47961;DHT22;33721;48.852;9.936;2022-12-20T07:10:27;1.30;99.90
47961;DHT22;33721;48.852;9.936;2022-12-20T07:12:52;1.20;99.90
47961;DHT22;33721;48.852;9.936;2022-12-20T07:15:18;1.30;99.90
47961;DHT22;33721;48.852;9.936;2022-12-20T07:17:46;1.30;99.90
47961;DHT22;33721;48.852;9.936;2022-12-20T07:20:12;1.30;99.90
47961;DHT22;33721;48.852;9.936;2022-12-20T07:22:38;1.30;99.90
47961;DHT22;33721;48.852;9.936;2022-12-20T07:25:04;1.30;99.90
47961;DHT22;33721;48.852;9.936;2022-12-20T07:27:29;1.30;99.90
47961;DHT22;33721;48.852;9.936;2022-12-20T07:29:55;1.30;99.90
47961;DHT22;33721;48.852;9.936;2022-12-20T07:32:21;1.40;99.90
47961;DHT22;33721;48.852;9.936;2022-12-20T07:34:47;1.50;99.90
47961;DHT22;33721;48.852;9.936;2022-12-20T07:37:12;1.50;99.90
47961;DHT22;33721;48.852;9.936;2022-12-20T07:39:38;1.60;99.90
47961;DHT22;33721;48.852;9.936;2022-12-20T07:42:04;1.60;99.90
47961;DHT22;33721;48.852;9.936;2022-12-20T07:44:29;1.60;99.90
47961;DHT22;33721;48.852;9.936;2022-12-20T07:46:55;1.60;99.90
47961;DHT22;33721;48.852;9.936;2022-12-20T07:49:20;1.50;99.90
47961;DHT22;33721;48.852;9.936;2022-12-20T07:51:50;1.50;99.90
47961;DHT22;33721;48.852;9.936;2022-12-20T07:54:18;1.50;99.90
47961;DHT22;33721;48.852;9.936;2022-12-20T07:56:47;1.50;99.90
47961;DHT22;33721;48.852;9.936;2022-12-20T07:59:19;1.50;99.90
47961;DHT22;33721;48.852;9.936;2022-12-20T08:01:46;1.50;99.90
47961;DHT22;33721;48.852;9.936;2022-12-20T08:04:16;1.50;99.90
47961;DHT22;33721;48.852;9.936;2022-12-20T08:06:43;1.50;99.90
47961;DHT22;33721;48.852;9.936;2022-12-20T08:09:10;1.60;99.90
47961;DHT22;33721;48.852;9.936;2022-12-20T08:11:39;1.60;99.90
47961;DHT22;33721;48.852;9.936;2022-12-20T08:14:06;1.70;99.90
47961;DHT22;33721;48.852;9.936;2022-12-20T08:16:32;1.70;99.90
47961;DHT22;33721;48.852;9.936;2022-12-20T08:18:58;1.80;99.90
47961;DHT22;33721;48.852;9.936;2022-12-20T08:21:24;1.80;99.90
47961;DHT22;33721;48.852;9.936;2022-12-20T08:23:50;1.80;99.90
47961;DHT22;33721;48.852;9.936;2022-12-20T08:26:16;1.90;99.90
47961;DHT22;33721;48.852;9.936;2022-12-20T08:28:42;2.00;99.90
47961;DHT22;33721;48.852;9.936;2022-12-20T08:31:08;2.10;99.90
47961;DHT22;33721;48.852;9.936;2022-12-20T08:33:36;2.10;99.90
47961;DHT22;33721;48.852;9.936;2022-12-20T08:36:04;2.20;99.90
47961;DHT22;33721;48.852;9.936;2022-12-20T08:38:31;2.20;99.90
47961;DHT22;33721;48.852;9.936;2022-12-20T08:41:11;2.30;99.90
47961;DHT22;33721;48.852;9.936;2022-12-20T08:43:37;2.30;99.90
47961;DHT22;33721;48.852;9.936;2022-12-20T08:46:04;2.20;99.90
47961;DHT22;33721;48.852;9.936;2022-12-20T08:48:31;2.20;99.90
47961;DHT22;33721;48.852;9.936;2022-12-20T08:50:59;2.20;99.90
47961;DHT22;33721;48.852;9.936;2022-12-20T08:53:26;2.20;99.90
47961;DHT22;33721;48.852;9.936;2022-12-20T08:55:52;2.20;99.90
47961;DHT22;33721;48.852;9.936;2022-12-20T08:58:19;2.20;99.90
47961;DHT22;33721;48.852;9.936;2022-12-20T09:00:45;2.20;99.90
47961;DHT22;33721;48.852;9.936;2022-12-20T09:03:12;2.20;99.90
47961;DHT22;33721;48.852;9.936;2022-12-20T09:05:47;2.20;99.90
47961;DHT22;33721;48.852;9.936;2022-12-20T09:08:16;2.20;99.90
47961;DHT22;33721;48.852;9.936;2022-12-20T09:10:42;2.30;99.90
47961;DHT22;33721;48.852;9.936;2022-12-20T09:13:08;2.30;99.90
47961;DHT22;33721;48.852;9.936;2022-12-20T09:15:34;2.30;99.90
47961;DHT22;33721;48.852;9.936;2022-12-20T09:18:00;2.40;99.90
47961;DHT22;33721;48.852;9.936;2022-12-20T09:20:27;2.40;99.90
47961;DHT22;33721;48.852;9.936;2022-12-20T09:22:53;2.50;99.90
47961;DHT22;33721;48.852;9.936;2022-12-20T09:25:18;2.60;99.90
47961;DHT22;33721;48.852;9.936;2022-12-20T09:27:44;2.60;99.90
47961;DHT22;33721;48.852;9.936;2022-12-20T09:30:10;2.60;99.90
47961;DHT22;33721;48.852;9.936;2022-12-20T09:32:36;2.70;99.90
47961;DHT22;33721;48.852;9.936;2022-12-20T09:35:03;2.70;99.90
47961;DHT22;33721;48.852;9.936;2022-12-20T09:37:29;2.80;99.90
47961;DHT22;33721;48.852;9.936;2022-12-20T09:39:56;2.80;99.90
47961;DHT22;33721;48.852;9.936;2022-12-20T09:42:25;2.80;99.90
47961;DHT22;33721;48.852;9.936;2022-12-20T09:45:04;2.80;99.90
47961;DHT22;33721;48.852;9.936;2022-12-20T09:47:33;2.80;99.90
47961;DHT22;33721;48.852;9.936;2022-12-20T09:50:00;2.80;99.90
47961;DHT22;33721;48.852;9.936;2022-12-20T09:53:03;2.70;99.90
47961;DHT22;33721;48.852;9.936;2022-12-20T09:55:44;2.80;99.90
47961;DHT22;33721;48.852;9.936;2022-12-20T10:00:47;2.90;99.90
47961;DHT22;33721;48.852;9.936;2022-12-20T10:03:19;2.90;99.90
47961;DHT22;33721;48.852;9.936;2022-12-20T10:05:55;2.90;99.90
47961;DHT22;33721;48.852;9.936;2022-12-20T10:08:53;2.90;99.90
47961;DHT22;33721;48.852;9.936;2022-12-20T10:14:23;2.90;99.90
47961;DHT22;33721;48.852;9.936;2022-12-20T10:16:57;3.00;99.90
47961;DHT22;33721;48.852;9.936;2022-12-20T10:19:52;3.10;99.90
47961;DHT22;33721;48.852;9.936;2022-12-20T10:22:32;3.10;99.90
47961;DHT22;33721;48.852;9.936;2022-12-20T10:25:17;3.10;99.90
47961;DHT22;33721;48.852;9.936;2022-12-20T10:27:44;3.10;99.90
47961;DHT22;33721;48.852;9.936;2022-12-20T10:30:22;3.10;99.90
47961;DHT22;33721;48.852;9.936;2022-12-20T10:32:53;3.10;99.90
47961;DHT22;33721;48.852;9.936;2022-12-20T10:35:30;3.10;99.90
47961;DHT22;33721;48.852;9.936;2022-12-20T10:42:54;3.40;99.90
47961;DHT22;33721;48.852;9.936;2022-12-20T10:47:47;3.60;99.90
47961;DHT22;33721;48.852;9.936;2022-12-20T10:50:22;3.80;99.90
47961;DHT22;33721;48.852;9.936;2022-12-20T10:53:11;4.10;99.90
47961;DHT22;33721;48.852;9.936;2022-12-20T10:55:42;4.40;99.90
47961;DHT22;33721;48.852;9.936;2022-12-20T10:58:16;4.60;99.90
47961;DHT22;33721;48.852;9.936;2022-12-20T11:00:46;4.60;99.90
47961;DHT22;33721;48.852;9.936;2022-12-20T11:05:38;4.50;99.90
47961;DHT22;33721;48.852;9.936;2022-12-20T11:08:16;4.40;99.90
47961;DHT22;33721;48.852;9.936;2022-12-20T11:10:43;4.30;99.90
47961;DHT22;33721;48.852;9.936;2022-12-20T11:13:23;4.30;99.90
47961;DHT22;33721;48.852;9.936;2022-12-20T11:15:50;4.20;99.90
47961;DHT22;33721;48.852;9.936;2022-12-20T11:18:28;4.10;99.90
47961;DHT22;33721;48.852;9.936;2022-12-20T11:23:37;4.10;99.90
47961;DHT22;33721;48.852;9.936;2022-12-20T11:33:59;4.10;99.90
47961;DHT22;33721;48.852;9.936;2022-12-20T11:39:31;4.20;99.90
47961;DHT22;33721;48.852;9.936;2022-12-20T11:45:08;4.20;99.90
47961;DHT22;33721;48.852;9.936;2022-12-20T11:50:33;4.10;99.90
47961;DHT22;33721;48.852;9.936;2022-12-20T11:53:10;4.10;99.90
47961;DHT22;33721;48.852;9.936;2022-12-20T11:55:40;4.00;99.90
47961;DHT22;33721;48.852;9.936;2022-12-20T12:00:40;4.00;99.90
47961;DHT22;33721;48.852;9.936;2022-12-20T12:06:06;4.00;99.90
47961;DHT22;33721;48.852;9.936;2022-12-20T12:08:39;4.00;99.90
47961;DHT22;33721;48.852;9.936;2022-12-20T12:11:39;4.00;99.90
47961;DHT22;33721;48.852;9.936;2022-12-20T12:14:16;4.10;99.90
47961;DHT22;33721;48.852;9.936;2022-12-20T12:16:50;4.10;99.90
47961;DHT22;33721;48.852;9.936;2022-12-20T12:19:18;4.10;99.90
47961;DHT22;33721;48.852;9.936;2022-12-20T12:21:54;4.10;99.90
47961;DHT22;33721;48.852;9.936;2022-12-20T12:24:32;4.20;99.90
47961;DHT22;33721;48.852;9.936;2022-12-20T12:26:59;4.20;99.90
47961;DHT22;33721;48.852;9.936;2022-12-20T12:29:28;4.20;99.90
47961;DHT22;33721;48.852;9.936;2022-12-20T12:32:01;4.30;99.90
47961;DHT22;33721;48.852;9.936;2022-12-20T12:34:53;4.30;99.90
47961;DHT22;33721;48.852;9.936;2022-12-20T12:37:30;4.40;99.90
47961;DHT22;33721;48.852;9.936;2022-12-20T12:43:15;4.40;99.90
47961;DHT22;33721;48.852;9.936;2022-12-20T12:45:55;4.40;99.90
47961;DHT22;33721;48.852;9.936;2022-12-20T12:51:13;4.50;99.90
47961;DHT22;33721;48.852;9.936;2022-12-20T12:53:52;4.50;99.90
47961;DHT22;33721;48.852;9.936;2022-12-20T13:11:53;4.60;99.90
47961;DHT22;33721;48.852;9.936;2022-12-20T13:19:38;5.40;99.90
47961;DHT22;33721;48.852;9.936;2022-12-20T13:38:04;5.70;99.90
47961;DHT22;33721;48.852;9.936;2022-12-20T13:40:59;5.60;99.90
47961;DHT22;33721;48.852;9.936;2022-12-20T13:43:29;5.60;99.90
47961;DHT22;33721;48.852;9.936;2022-12-20T13:51:23;5.40;99.90
47961;DHT22;33721;48.852;9.936;2022-12-20T13:53:56;5.30;99.90
47961;DHT22;33721;48.852;9.936;2022-12-20T13:56:46;5.30;99.90
47961;DHT22;33721;48.852;9.936;2022-12-20T13:59:25;5.30;99.90
47961;DHT22;33721;48.852;9.936;2022-12-20T14:01:54;5.30;99.90
47961;DHT22;33721;48.852;9.936;2022-12-20T14:04:21;5.30;99.90
47961;DHT22;33721;48.852;9.936;2022-12-20T14:06:51;5.30;99.90
47961;DHT22;33721;48.852;9.936;2022-12-20T14:09:30;5.20;99.90
47961;DHT22;33721;48.852;9.936;2022-12-20T14:12:06;5.20;99.90
47961;DHT22;33721;48.852;9.936;2022-12-20T14:14:37;5.20;99.90
47961;DHT22;33721;48.852;9.936;2022-12-20T14:17:16;5.20;99.90
47961;DHT22;33721;48.852;9.936;2022-12-20T14:19:42;5.20;99.90
47961;DHT22;33721;48.852;9.936;2022-12-20T14:22:11;5.10;99.90
47961;DHT22;33721;48.852;9.936;2022-12-20T14:24:40;5.00;99.90
47961;DHT22;33721;48.852;9.936;2022-12-20T14:27:11;4.90;99.90
47961;DHT22;33721;48.852;9.936;2022-12-20T14:29:38;4.80;99.90
47961;DHT22;33721;48.852;9.936;2022-12-20T14:32:05;4.80;99.90
47961;DHT22;33721;48.852;9.936;2022-12-20T14:34:33;4.80;99.90
47961;DHT22;33721;48.852;9.936;2022-12-20T14:37:31;4.80;99.90
47961;DHT22;33721;48.852;9.936;2022-12-20T14:42:37;4.80;99.90
47961;DHT22;33721;48.852;9.936;2022-12-20T14:47:55;4.80;99.90
47961;DHT22;33721;48.852;9.936;2022-12-20T14:50:29;4.80;99.90
47961;DHT22;33721;48.852;9.936;2022-12-20T14:52:55;4.80;99.90
47961;DHT22;33721;48.852;9.936;2022-12-20T14:55:24;4.80;99.90
47961;DHT22;33721;48.852;9.936;2022-12-20T14:57:52;4.70;99.90
47961;DHT22;33721;48.852;9.936;2022-12-20T15:00:28;4.80;99.90
47961;DHT22;33721;48.852;9.936;2022-12-20T15:10:57;4.50;99.90
47961;DHT22;33721;48.852;9.936;2022-12-20T15:15:54;4.40;99.90
47961;DHT22;33721;48.852;9.936;2022-12-20T15:18:23;4.40;99.90
47961;DHT22;33721;48.852;9.936;2022-12-20T15:21:00;4.30;99.90
47961;DHT22;33721;48.852;9.936;2022-12-20T15:23:26;4.30;99.90
47961;DHT22;33721;48.852;9.936;2022-12-20T15:25:52;4.40;99.90
47961;DHT22;33721;48.852;9.936;2022-12-20T15:28:23;4.40;99.90
47961;DHT22;33721;48.852;9.936;2022-12-20T15:30:51;4.30;99.90
47961;DHT22;33721;48.852;9.936;2022-12-20T15:33:23;4.30;99.90
47961;DHT22;33721;48.852;9.936;2022-12-20T15:35:49;4.20;99.90
47961;DHT22;33721;48.852;9.936;2022-12-20T15:38:18;4.10;99.90
47961;DHT22;33721;48.852;9.936;2022-12-20T15:40:46;4.10;99.90
47961;DHT22;33721;48.852;9.936;2022-12-20T15:43:14;4.10;99.90
47961;DHT22;33721;48.852;9.936;2022-12-20T15:45:42;4.20;99.90
47961;DHT22;33721;48.852;9.936;2022-12-20T15:48:13;4.10;99.90
47961;DHT22;33721;48.852;9.936;2022-12-20T15:50:39;4.00;99.90
47961;DHT22;33721;48.852;9.936;2022-12-20T15:53:11;3.90;99.90
47961;DHT22;33721;48.852;9.936;2022-12-20T15:55:37;3.80;99.90
47961;DHT22;33721;48.852;9.936;2022-12-20T15:58:03;3.80;99.90
47961;DHT22;33721;48.852;9.936;2022-12-20T16:00:28;3.80;99.90
47961;DHT22;33721;48.852;9.936;2022-12-20T16:02:54;3.90;99.90
47961;DHT22;33721;48.852;9.936;2022-12-20T16:05:22;3.80;99.90
47961;DHT22;33721;48.852;9.936;2022-12-20T16:07:47;3.80;99.90
47961;DHT22;33721;48.852;9.936;2022-12-20T16:10:13;3.80;99.90
47961;DHT22;33721;48.852;9.936;2022-12-20T16:12:40;3.80;99.90
47961;DHT22;33721;48.852;9.936;2022-12-20T16:15:18;3.80;99.90
47961;DHT22;33721;48.852;9.936;2022-12-20T16:17:47;3.80;99.90
47961;DHT22;33721;48.852;9.936;2022-12-20T16:20:13;3.70;99.90
47961;DHT22;33721;48.852;9.936;2022-12-20T16:22:39;3.70;99.90
47961;DHT22;33721;48.852;9.936;2022-12-20T16:25:05;3.70;99.90
47961;DHT22;33721;48.852;9.936;2022-12-20T16:27:30;3.60;99.90
47961;DHT22;33721;48.852;9.936;2022-12-20T16:29:56;3.60;99.90
47961;DHT22;33721;48.852;9.936;2022-12-20T16:32:22;3.60;99.90
47961;DHT22;33721;48.852;9.936;2022-12-20T16:34:48;3.60;99.90
47961;DHT22;33721;48.852;9.936;2022-12-20T16:37:14;3.50;99.90
47961;DHT22;33721;48.852;9.936;2022-12-20T16:39:43;3.50;99.90
47961;DHT22;33721;48.852;9.936;2022-12-20T16:42:19;3.50;99.90
47961;DHT22;33721;48.852;9.936;2022-12-20T16:44:51;3.60;99.90
47961;DHT22;33721;48.852;9.936;2022-12-20T16:47:17;3.40;99.90
47961;DHT22;33721;48.852;9.936;2022-12-20T16:49:45;3.20;99.90
47961;DHT22;33721;48.852;9.936;2022-12-20T16:52:17;3.00;99.90
47961;DHT22;33721;48.852;9.936;2022-12-20T16:54:42;2.90;99.90
47961;DHT22;33721;48.852;9.936;2022-12-20T16:57:09;2.90;99.90
47961;DHT22;33721;48.852;9.936;2022-12-20T16:59:34;3.00;99.90
47961;DHT22;33721;48.852;9.936;2022-12-20T17:02:00;3.00;99.90
47961;DHT22;33721;48.852;9.936;2022-12-20T17:04:26;3.10;99.90
47961;DHT22;33721;48.852;9.936;2022-12-20T17:06:51;3.10;99.90
47961;DHT22;33721;48.852;9.936;2022-12-20T17:09:18;3.10;99.90
47961;DHT22;33721;48.852;9.936;2022-12-20T17:11:44;3.20;99.90
47961;DHT22;33721;48.852;9.936;2022-12-20T17:14:11;3.20;99.90
47961;DHT22;33721;48.852;9.936;2022-12-20T17:16:38;3.20;99.90
47961;DHT22;33721;48.852;9.936;2022-12-20T17:19:03;3.20;99.90
47961;DHT22;33721;48.852;9.936;2022-12-20T17:21:35;3.10;99.90
47961;DHT22;33721;48.852;9.936;2022-12-20T17:24:02;3.20;99.90
47961;DHT22;33721;48.852;9.936;2022-12-20T17:26:30;3.20;99.90
47961;DHT22;33721;48.852;9.936;2022-12-20T17:28:57;3.30;99.90
47961;DHT22;33721;48.852;9.936;2022-12-20T17:31:37;3.20;99.90
47961;DHT22;33721;48.852;9.936;2022-12-20T17:34:21;3.20;99.90
47961;DHT22;33721;48.852;9.936;2022-12-20T17:36:49;3.20;99.90
47961;DHT22;33721;48.852;9.936;2022-12-20T17:39:15;3.20;99.90
47961;DHT22;33721;48.852;9.936;2022-12-20T17:41:41;3.20;99.90
47961;DHT22;33721;48.852;9.936;2022-12-20T17:44:16;3.20;99.90
47961;DHT22;33721;48.852;9.936;2022-12-20T17:46:42;3.30;99.90
47961;DHT22;33721;48.852;9.936;2022-12-20T17:49:08;3.20;99.90
47961;DHT22;33721;48.852;9.936;2022-12-20T17:51:34;3.20;99.90
47961;DHT22;33721;48.852;9.936;2022-12-20T17:54:00;3.10;99.90
47961;DHT22;33721;48.852;9.936;2022-12-20T17:56:31;3.10;99.90
47961;DHT22;33721;48.852;9.936;2022-12-20T17:58:58;3.10;99.90